MET'MAP v2.0
soon released !

Expected late october,
this new version will be
more efficient, smarter,
and hosted on a brand new
server x3 powerfull...
...and still free !


Not compatible ?
Try the mobile version !

LOG IN : | Subscribe | Disclaimer | Who is Orbifly ? |
ICAO code :

TAF - EKRK Roskilde Tune - 27 Oct 2020 19:48 UTC - Data Source NOAA   


- Airport Elevation : 146 ft
- IATA code : RKE
- No reported NOTAMs.


EKRK - Roskilde Tune

Latest METAR recorded : 2015/08/11 07:50 EKRK 110750Z AUTO 31005KT 9999NDV -SHRA SCT050/// BKN100/// BKN120/// 16/15 Q1017
TAF TAF EKRK
Valid from the 27 at 18:00 until the 28 at 03:00 UTC


271723Z 2718/2803 18010KT 9999 SCT030
TEMPO 2718/2721 SCT018CB

Source NOAA


MET'MAP, your aeronautical weather chart ! - Copyright ORBIFLY December 2007

Programming & Development : Alexandra Zaïnal
Co-Developer : Marc-Olivier Méhu
Technical & hardware support : Manuel Goepfert
Concept & Financing : Baudouin d'Aumeries